sensor_id;sensor_type;location;lat;lon;timestamp;temperature;humidity
11532;DHT22;5822;51.000;5.874;2023-01-31T00:00:55;7.30;99.90
11532;DHT22;5822;51.000;5.874;2023-01-31T00:03:21;7.40;99.90
11532;DHT22;5822;51.000;5.874;2023-01-31T00:05:46;7.20;99.90
11532;DHT22;5822;51.000;5.874;2023-01-31T00:08:12;7.30;99.90
11532;DHT22;5822;51.000;5.874;2023-01-31T00:10:40;7.30;99.90
11532;DHT22;5822;51.000;5.874;2023-01-31T00:13:05;7.30;99.90
11532;DHT22;5822;51.000;5.874;2023-01-31T00:15:31;7.20;99.90
11532;DHT22;5822;51.000;5.874;2023-01-31T00:17:56;7.10;99.90
11532;DHT22;5822;51.000;5.874;2023-01-31T00:20:22;7.10;99.90
11532;DHT22;5822;51.000;5.874;2023-01-31T00:22:48;7.10;99.90
11532;DHT22;5822;51.000;5.874;2023-01-31T00:25:14;7.10;99.90
11532;DHT22;5822;51.000;5.874;2023-01-31T00:27:39;7.20;99.90
11532;DHT22;5822;51.000;5.874;2023-01-31T00:30:05;7.10;99.90
11532;DHT22;5822;51.000;5.874;2023-01-31T00:32:31;7.10;99.90
11532;DHT22;5822;51.000;5.874;2023-01-31T00:34:56;7.20;99.90
11532;DHT22;5822;51.000;5.874;2023-01-31T00:37:22;7.20;99.90
11532;DHT22;5822;51.000;5.874;2023-01-31T00:39:48;7.10;99.90
11532;DHT22;5822;51.000;5.874;2023-01-31T00:42:13;7.10;99.90
11532;DHT22;5822;51.000;5.874;2023-01-31T00:44:39;7.20;99.90
11532;DHT22;5822;51.000;5.874;2023-01-31T00:47:05;7.30;99.90
11532;DHT22;5822;51.000;5.874;2023-01-31T00:49:31;7.40;99.90
11532;DHT22;5822;51.000;5.874;2023-01-31T00:51:56;7.40;99.90
11532;DHT22;5822;51.000;5.874;2023-01-31T00:54:22;7.40;99.90
11532;DHT22;5822;51.000;5.874;2023-01-31T00:56:48;7.30;99.90
11532;DHT22;5822;51.000;5.874;2023-01-31T00:59:13;7.30;99.90
11532;DHT22;5822;51.000;5.874;2023-01-31T01:01:39;7.20;99.90
11532;DHT22;5822;51.000;5.874;2023-01-31T01:04:05;7.20;99.90
11532;DHT22;5822;51.000;5.874;2023-01-31T01:06:31;7.20;99.90
11532;DHT22;5822;51.000;5.874;2023-01-31T01:08:57;7.10;99.90
11532;DHT22;5822;51.000;5.874;2023-01-31T01:11:33;7.10;99.90
11532;DHT22;5822;51.000;5.874;2023-01-31T01:14:00;7.20;99.90
11532;DHT22;5822;51.000;5.874;2023-01-31T01:16:31;7.10;99.90
11532;DHT22;5822;51.000;5.874;2023-01-31T01:18:57;7.10;99.90
11532;DHT22;5822;51.000;5.874;2023-01-31T01:21:26;7.20;99.90
11532;DHT22;5822;51.000;5.874;2023-01-31T01:23:54;7.20;99.90
11532;DHT22;5822;51.000;5.874;2023-01-31T01:26:22;7.20;99.90
11532;DHT22;5822;51.000;5.874;2023-01-31T01:28:50;7.20;99.90
11532;DHT22;5822;51.000;5.874;2023-01-31T01:31:17;7.20;99.90
11532;DHT22;5822;51.000;5.874;2023-01-31T01:33:44;7.30;99.90
11532;DHT22;5822;51.000;5.874;2023-01-31T01:36:11;7.20;99.90
11532;DHT22;5822;51.000;5.874;2023-01-31T01:38:38;7.30;99.90
11532;DHT22;5822;51.000;5.874;2023-01-31T01:41:08;7.30;99.90
11532;DHT22;5822;51.000;5.874;2023-01-31T01:43:44;7.30;99.90
11532;DHT22;5822;51.000;5.874;2023-01-31T01:46:13;7.20;99.90
11532;DHT22;5822;51.000;5.874;2023-01-31T01:48:43;7.20;99.90
11532;DHT22;5822;51.000;5.874;2023-01-31T01:51:10;7.10;99.90
11532;DHT22;5822;51.000;5.874;2023-01-31T01:53:39;7.00;99.90
11532;DHT22;5822;51.000;5.874;2023-01-31T01:56:16;6.90;99.90
11532;DHT22;5822;51.000;5.874;2023-01-31T01:58:50;6.90;99.90
11532;DHT22;5822;51.000;5.874;2023-01-31T02:01:19;6.90;99.90
11532;DHT22;5822;51.000;5.874;2023-01-31T02:03:46;6.90;99.90
11532;DHT22;5822;51.000;5.874;2023-01-31T02:06:13;6.70;99.90
11532;DHT22;5822;51.000;5.874;2023-01-31T02:08:41;6.80;99.90
11532;DHT22;5822;51.000;5.874;2023-01-31T02:13:39;6.90;99.90
11532;DHT22;5822;51.000;5.874;2023-01-31T02:16:06;6.90;99.90
11532;DHT22;5822;51.000;5.874;2023-01-31T02:18:33;6.80;99.90
11532;DHT22;5822;51.000;5.874;2023-01-31T02:23:54;6.90;99.90
11532;DHT22;5822;51.000;5.874;2023-01-31T02:38:18;6.80;99.90
11532;DHT22;5822;51.000;5.874;2023-01-31T02:40:52;6.80;99.90
11532;DHT22;5822;51.000;5.874;2023-01-31T02:43:33;6.70;99.90
11532;DHT22;5822;51.000;5.874;2023-01-31T02:46:22;6.80;99.90
11532;DHT22;5822;51.000;5.874;2023-01-31T02:49:02;6.80;99.90
11532;DHT22;5822;51.000;5.874;2023-01-31T02:51:34;6.80;99.90
11532;DHT22;5822;51.000;5.874;2023-01-31T02:54:11;6.90;99.90
11532;DHT22;5822;51.000;5.874;2023-01-31T02:56:40;6.90;99.90
11532;DHT22;5822;51.000;5.874;2023-01-31T02:59:12;7.00;99.90
11532;DHT22;5822;51.000;5.874;2023-01-31T03:01:45;7.00;99.90
11532;DHT22;5822;51.000;5.874;2023-01-31T03:04:13;6.90;99.90
11532;DHT22;5822;51.000;5.874;2023-01-31T03:07:15;7.00;99.90
11532;DHT22;5822;51.000;5.874;2023-01-31T03:15:21;6.90;99.90
11532;DHT22;5822;51.000;5.874;2023-01-31T03:18:08;6.90;99.90
11532;DHT22;5822;51.000;5.874;2023-01-31T03:23:24;7.10;99.90
11532;DHT22;5822;51.000;5.874;2023-01-31T03:25:55;7.00;99.90
11532;DHT22;5822;51.000;5.874;2023-01-31T03:28:27;7.10;99.90
11532;DHT22;5822;51.000;5.874;2023-01-31T03:31:00;7.10;99.90
11532;DHT22;5822;51.000;5.874;2023-01-31T03:33:32;7.10;99.90
11532;DHT22;5822;51.000;5.874;2023-01-31T03:36:06;7.10;99.90
11532;DHT22;5822;51.000;5.874;2023-01-31T03:38:37;7.20;99.90
11532;DHT22;5822;51.000;5.874;2023-01-31T03:41:33;7.30;99.90
11532;DHT22;5822;51.000;5.874;2023-01-31T03:44:25;7.00;99.90
11532;DHT22;5822;51.000;5.874;2023-01-31T03:47:00;7.00;99.90
11532;DHT22;5822;51.000;5.874;2023-01-31T03:49:28;6.90;99.90
11532;DHT22;5822;51.000;5.874;2023-01-31T03:51:59;7.00;99.90
11532;DHT22;5822;51.000;5.874;2023-01-31T03:54:32;7.00;99.90
11532;DHT22;5822;51.000;5.874;2023-01-31T03:57:20;7.10;99.90
11532;DHT22;5822;51.000;5.874;2023-01-31T03:59:50;7.10;99.90
11532;DHT22;5822;51.000;5.874;2023-01-31T04:02:20;7.10;99.90
11532;DHT22;5822;51.000;5.874;2023-01-31T04:04:52;7.10;99.90
11532;DHT22;5822;51.000;5.874;2023-01-31T04:07:21;7.00;99.90
11532;DHT22;5822;51.000;5.874;2023-01-31T04:09:47;7.10;99.90
11532;DHT22;5822;51.000;5.874;2023-01-31T04:12:13;7.00;99.90
11532;DHT22;5822;51.000;5.874;2023-01-31T04:14:40;6.90;99.90
11532;DHT22;5822;51.000;5.874;2023-01-31T04:17:06;7.00;99.90
11532;DHT22;5822;51.000;5.874;2023-01-31T04:19:31;7.00;99.90
11532;DHT22;5822;51.000;5.874;2023-01-31T04:21:57;7.00;99.90
11532;DHT22;5822;51.000;5.874;2023-01-31T04:24:22;7.00;99.90
11532;DHT22;5822;51.000;5.874;2023-01-31T04:26:48;7.00;99.90
11532;DHT22;5822;51.000;5.874;2023-01-31T04:29:14;7.00;99.90
11532;DHT22;5822;51.000;5.874;2023-01-31T04:31:39;7.00;99.90
11532;DHT22;5822;51.000;5.874;2023-01-31T04:34:06;7.10;99.90
11532;DHT22;5822;51.000;5.874;2023-01-31T04:36:31;7.10;99.90
11532;DHT22;5822;51.000;5.874;2023-01-31T04:38:57;7.00;99.90
11532;DHT22;5822;51.000;5.874;2023-01-31T04:41:25;6.90;99.90
11532;DHT22;5822;51.000;5.874;2023-01-31T04:43:51;6.90;99.90
11532;DHT22;5822;51.000;5.874;2023-01-31T04:46:16;6.90;99.90
11532;DHT22;5822;51.000;5.874;2023-01-31T04:48:42;7.00;99.90
11532;DHT22;5822;51.000;5.874;2023-01-31T04:51:08;7.00;99.90
11532;DHT22;5822;51.000;5.874;2023-01-31T04:53:34;7.00;99.90
11532;DHT22;5822;51.000;5.874;2023-01-31T04:55:59;6.90;99.90
11532;DHT22;5822;51.000;5.874;2023-01-31T04:58:25;7.00;99.90
11532;DHT22;5822;51.000;5.874;2023-01-31T05:00:52;7.00;99.90
11532;DHT22;5822;51.000;5.874;2023-01-31T05:03:18;6.90;99.90
11532;DHT22;5822;51.000;5.874;2023-01-31T05:05:46;6.90;99.90
11532;DHT22;5822;51.000;5.874;2023-01-31T05:08:12;6.80;99.90
11532;DHT22;5822;51.000;5.874;2023-01-31T05:10:37;6.90;99.90
11532;DHT22;5822;51.000;5.874;2023-01-31T05:13:03;6.90;99.90
11532;DHT22;5822;51.000;5.874;2023-01-31T05:15:29;7.00;99.90
11532;DHT22;5822;51.000;5.874;2023-01-31T05:17:56;7.00;99.90
11532;DHT22;5822;51.000;5.874;2023-01-31T05:20:28;6.90;99.90
11532;DHT22;5822;51.000;5.874;2023-01-31T05:22:55;7.00;99.90
11532;DHT22;5822;51.000;5.874;2023-01-31T05:25:21;6.90;99.90
11532;DHT22;5822;51.000;5.874;2023-01-31T05:27:46;6.90;99.90
11532;DHT22;5822;51.000;5.874;2023-01-31T05:30:12;6.90;99.90
11532;DHT22;5822;51.000;5.874;2023-01-31T05:32:40;6.90;99.90
11532;DHT22;5822;51.000;5.874;2023-01-31T05:35:06;6.90;99.90
11532;DHT22;5822;51.000;5.874;2023-01-31T05:37:31;6.90;99.90
11532;DHT22;5822;51.000;5.874;2023-01-31T05:39:57;7.10;99.90
11532;DHT22;5822;51.000;5.874;2023-01-31T05:42:22;7.00;99.90
11532;DHT22;5822;51.000;5.874;2023-01-31T05:44:48;7.00;99.90
11532;DHT22;5822;51.000;5.874;2023-01-31T05:47:14;7.10;99.90
11532;DHT22;5822;51.000;5.874;2023-01-31T05:49:39;7.00;99.90
11532;DHT22;5822;51.000;5.874;2023-01-31T05:52:05;7.00;99.90
11532;DHT22;5822;51.000;5.874;2023-01-31T05:54:31;6.90;99.90
11532;DHT22;5822;51.000;5.874;2023-01-31T05:56:56;6.90;99.90
11532;DHT22;5822;51.000;5.874;2023-01-31T05:59:22;6.90;99.90
11532;DHT22;5822;51.000;5.874;2023-01-31T06:01:47;6.90;99.90
11532;DHT22;5822;51.000;5.874;2023-01-31T06:04:13;6.90;99.90
11532;DHT22;5822;51.000;5.874;2023-01-31T06:06:39;6.90;99.90
11532;DHT22;5822;51.000;5.874;2023-01-31T06:09:04;6.90;99.90
11532;DHT22;5822;51.000;5.874;2023-01-31T06:11:30;7.00;99.90
11532;DHT22;5822;51.000;5.874;2023-01-31T06:13:56;7.00;99.90
11532;DHT22;5822;51.000;5.874;2023-01-31T06:16:23;6.90;99.90
11532;DHT22;5822;51.000;5.874;2023-01-31T06:18:49;6.90;99.90
11532;DHT22;5822;51.000;5.874;2023-01-31T06:21:14;6.90;99.90
11532;DHT22;5822;51.000;5.874;2023-01-31T06:23:41;6.80;99.90
11532;DHT22;5822;51.000;5.874;2023-01-31T06:26:11;6.80;99.90
11532;DHT22;5822;51.000;5.874;2023-01-31T06:28:37;6.90;99.90
11532;DHT22;5822;51.000;5.874;2023-01-31T06:31:10;6.80;99.90
11532;DHT22;5822;51.000;5.874;2023-01-31T06:33:35;6.80;99.90
11532;DHT22;5822;51.000;5.874;2023-01-31T06:36:02;6.80;99.90
11532;DHT22;5822;51.000;5.874;2023-01-31T06:38:28;6.80;99.90
11532;DHT22;5822;51.000;5.874;2023-01-31T06:40:54;6.80;99.90
11532;DHT22;5822;51.000;5.874;2023-01-31T06:43:20;6.80;99.90
11532;DHT22;5822;51.000;5.874;2023-01-31T06:45:46;6.90;99.90
11532;DHT22;5822;51.000;5.874;2023-01-31T06:48:14;6.80;99.90
11532;DHT22;5822;51.000;5.874;2023-01-31T06:50:40;6.80;99.90
11532;DHT22;5822;51.000;5.874;2023-01-31T06:53:07;6.80;99.90
11532;DHT22;5822;51.000;5.874;2023-01-31T06:55:32;7.00;99.90
11532;DHT22;5822;51.000;5.874;2023-01-31T06:57:58;7.00;99.90
11532;DHT22;5822;51.000;5.874;2023-01-31T07:00:24;7.00;99.90
11532;DHT22;5822;51.000;5.874;2023-01-31T07:02:51;7.00;99.90
11532;DHT22;5822;51.000;5.874;2023-01-31T07:05:18;7.00;99.90
11532;DHT22;5822;51.000;5.874;2023-01-31T07:07:44;7.10;99.90
11532;DHT22;5822;51.000;5.874;2023-01-31T07:10:10;7.10;99.90
11532;DHT22;5822;51.000;5.874;2023-01-31T07:12:36;7.10;99.90
11532;DHT22;5822;51.000;5.874;2023-01-31T07:15:02;7.10;99.90
11532;DHT22;5822;51.000;5.874;2023-01-31T07:17:28;7.10;99.90
11532;DHT22;5822;51.000;5.874;2023-01-31T07:19:54;7.10;99.90
11532;DHT22;5822;51.000;5.874;2023-01-31T07:22:19;7.30;99.90
11532;DHT22;5822;51.000;5.874;2023-01-31T07:24:45;7.30;99.90
11532;DHT22;5822;51.000;5.874;2023-01-31T07:27:14;7.20;99.90
11532;DHT22;5822;51.000;5.874;2023-01-31T07:29:39;7.20;99.90
11532;DHT22;5822;51.000;5.874;2023-01-31T07:32:05;7.30;99.90
11532;DHT22;5822;51.000;5.874;2023-01-31T07:34:31;7.30;99.90
11532;DHT22;5822;51.000;5.874;2023-01-31T07:36:57;7.30;99.90
11532;DHT22;5822;51.000;5.874;2023-01-31T07:39:22;7.20;99.90
11532;DHT22;5822;51.000;5.874;2023-01-31T07:41:49;7.20;99.90
11532;DHT22;5822;51.000;5.874;2023-01-31T07:44:17;7.20;99.90
11532;DHT22;5822;51.000;5.874;2023-01-31T07:46:42;7.30;99.90
11532;DHT22;5822;51.000;5.874;2023-01-31T07:49:09;7.30;99.90
11532;DHT22;5822;51.000;5.874;2023-01-31T07:51:35;7.30;99.90
11532;DHT22;5822;51.000;5.874;2023-01-31T07:54:01;7.30;99.90
11532;DHT22;5822;51.000;5.874;2023-01-31T07:56:27;7.30;99.90
11532;DHT22;5822;51.000;5.874;2023-01-31T07:58:53;7.30;99.90
11532;DHT22;5822;51.000;5.874;2023-01-31T08:01:21;7.30;99.90
11532;DHT22;5822;51.000;5.874;2023-01-31T08:04:07;7.30;99.90
11532;DHT22;5822;51.000;5.874;2023-01-31T08:06:33;7.20;99.90
11532;DHT22;5822;51.000;5.874;2023-01-31T08:08:59;7.30;99.90
11532;DHT22;5822;51.000;5.874;2023-01-31T08:11:25;7.30;99.90
11532;DHT22;5822;51.000;5.874;2023-01-31T08:13:51;7.30;99.90
11532;DHT22;5822;51.000;5.874;2023-01-31T08:16:17;7.30;99.90
11532;DHT22;5822;51.000;5.874;2023-01-31T08:18:44;7.30;99.90
11532;DHT22;5822;51.000;5.874;2023-01-31T08:21:11;7.40;99.90
11532;DHT22;5822;51.000;5.874;2023-01-31T08:23:37;7.50;99.90
11532;DHT22;5822;51.000;5.874;2023-01-31T08:26:09;7.40;99.90
11532;DHT22;5822;51.000;5.874;2023-01-31T08:28:36;7.50;99.90
11532;DHT22;5822;51.000;5.874;2023-01-31T08:31:02;7.40;99.90
11532;DHT22;5822;51.000;5.874;2023-01-31T08:33:28;7.50;99.90
11532;DHT22;5822;51.000;5.874;2023-01-31T08:35:54;7.50;99.90
11532;DHT22;5822;51.000;5.874;2023-01-31T08:38:20;7.40;99.90
11532;DHT22;5822;51.000;5.874;2023-01-31T08:40:45;7.40;99.90
11532;DHT22;5822;51.000;5.874;2023-01-31T08:43:11;7.50;99.90
11532;DHT22;5822;51.000;5.874;2023-01-31T08:45:37;7.40;99.90
11532;DHT22;5822;51.000;5.874;2023-01-31T08:48:03;7.40;99.90
11532;DHT22;5822;51.000;5.874;2023-01-31T08:50:30;7.40;99.90
11532;DHT22;5822;51.000;5.874;2023-01-31T08:52:58;7.50;99.90
11532;DHT22;5822;51.000;5.874;2023-01-31T08:55:28;7.50;99.90
11532;DHT22;5822;51.000;5.874;2023-01-31T08:57:54;7.50;99.90
11532;DHT22;5822;51.000;5.874;2023-01-31T09:00:20;7.60;99.90
11532;DHT22;5822;51.000;5.874;2023-01-31T09:02:56;7.60;99.90
11532;DHT22;5822;51.000;5.874;2023-01-31T09:05:23;7.70;99.90
11532;DHT22;5822;51.000;5.874;2023-01-31T09:07:49;7.70;99.90
11532;DHT22;5822;51.000;5.874;2023-01-31T09:10:16;7.60;99.90
11532;DHT22;5822;51.000;5.874;2023-01-31T09:12:42;7.60;99.90
11532;DHT22;5822;51.000;5.874;2023-01-31T09:15:08;7.60;99.90
11532;DHT22;5822;51.000;5.874;2023-01-31T09:17:34;7.60;99.90
11532;DHT22;5822;51.000;5.874;2023-01-31T09:20:02;7.70;99.90
11532;DHT22;5822;51.000;5.874;2023-01-31T09:22:34;7.70;99.90
11532;DHT22;5822;51.000;5.874;2023-01-31T09:25:00;7.70;99.90
11532;DHT22;5822;51.000;5.874;2023-01-31T09:27:27;7.60;99.90
11532;DHT22;5822;51.000;5.874;2023-01-31T09:29:53;7.70;99.90
11532;DHT22;5822;51.000;5.874;2023-01-31T09:32:18;7.70;99.90
11532;DHT22;5822;51.000;5.874;2023-01-31T09:34:46;7.80;99.90
11532;DHT22;5822;51.000;5.874;2023-01-31T09:37:14;7.80;99.90
11532;DHT22;5822;51.000;5.874;2023-01-31T09:39:39;7.80;99.90
11532;DHT22;5822;51.000;5.874;2023-01-31T09:45:02;7.90;99.90
11532;DHT22;5822;51.000;5.874;2023-01-31T09:47:42;7.90;99.90
11532;DHT22;5822;51.000;5.874;2023-01-31T09:52:56;7.90;99.90
11532;DHT22;5822;51.000;5.874;2023-01-31T10:01:02;8.00;99.90
11532;DHT22;5822;51.000;5.874;2023-01-31T10:06:42;8.00;99.90
11532;DHT22;5822;51.000;5.874;2023-01-31T10:09:39;7.90;99.90
11532;DHT22;5822;51.000;5.874;2023-01-31T10:12:19;8.00;99.90
11532;DHT22;5822;51.000;5.874;2023-01-31T10:14:57;8.00;99.90
11532;DHT22;5822;51.000;5.874;2023-01-31T10:17:31;8.00;99.90
11532;DHT22;5822;51.000;5.874;2023-01-31T10:25:19;8.10;99.90
11532;DHT22;5822;51.000;5.874;2023-01-31T10:28:14;8.00;99.90
11532;DHT22;5822;51.000;5.874;2023-01-31T10:33:51;8.00;99.90
11532;DHT22;5822;51.000;5.874;2023-01-31T10:39:28;8.10;99.90
11532;DHT22;5822;51.000;5.874;2023-01-31T10:42:22;8.10;99.90
11532;DHT22;5822;51.000;5.874;2023-01-31T10:44:57;8.10;99.90
11532;DHT22;5822;51.000;5.874;2023-01-31T10:47:37;8.10;99.90
11532;DHT22;5822;51.000;5.874;2023-01-31T10:50:37;8.20;99.90
11532;DHT22;5822;51.000;5.874;2023-01-31T10:58:35;8.20;99.90
11532;DHT22;5822;51.000;5.874;2023-01-31T11:01:03;8.30;99.90
11532;DHT22;5822;51.000;5.874;2023-01-31T11:03:33;8.40;99.90
11532;DHT22;5822;51.000;5.874;2023-01-31T11:05:58;8.40;99.90
11532;DHT22;5822;51.000;5.874;2023-01-31T11:11:17;8.50;99.90
11532;DHT22;5822;51.000;5.874;2023-01-31T11:14:05;8.50;99.90
11532;DHT22;5822;51.000;5.874;2023-01-31T11:16:38;8.40;99.90
11532;DHT22;5822;51.000;5.874;2023-01-31T11:19:37;8.50;99.90
11532;DHT22;5822;51.000;5.874;2023-01-31T11:22:05;8.50;99.90
11532;DHT22;5822;51.000;5.874;2023-01-31T11:24:33;8.60;99.90
11532;DHT22;5822;51.000;5.874;2023-01-31T11:27:04;8.50;99.90
11532;DHT22;5822;51.000;5.874;2023-01-31T11:29:46;8.40;99.90
11532;DHT22;5822;51.000;5.874;2023-01-31T11:32:21;8.50;99.90
11532;DHT22;5822;51.000;5.874;2023-01-31T11:35:03;8.50;99.90
11532;DHT22;5822;51.000;5.874;2023-01-31T11:37:30;8.50;99.90
11532;DHT22;5822;51.000;5.874;2023-01-31T11:39:58;8.50;99.90
11532;DHT22;5822;51.000;5.874;2023-01-31T11:42:25;8.50;99.90
11532;DHT22;5822;51.000;5.874;2023-01-31T11:45:02;8.50;99.90
11532;DHT22;5822;51.000;5.874;2023-01-31T11:50:03;8.50;99.90
11532;DHT22;5822;51.000;5.874;2023-01-31T11:52:31;8.60;99.90
11532;DHT22;5822;51.000;5.874;2023-01-31T11:55:04;8.50;99.90
11532;DHT22;5822;51.000;5.874;2023-01-31T11:57:33;8.60;99.90
11532;DHT22;5822;51.000;5.874;2023-01-31T12:00:01;8.70;99.90
11532;DHT22;5822;51.000;5.874;2023-01-31T12:04:53;8.70;99.90
11532;DHT22;5822;51.000;5.874;2023-01-31T12:07:26;8.70;99.90
11532;DHT22;5822;51.000;5.874;2023-01-31T12:09:53;8.80;99.90
11532;DHT22;5822;51.000;5.874;2023-01-31T12:12:42;8.70;99.90
11532;DHT22;5822;51.000;5.874;2023-01-31T12:15:14;8.70;99.90
11532;DHT22;5822;51.000;5.874;2023-01-31T12:17:46;8.80;99.90
11532;DHT22;5822;51.000;5.874;2023-01-31T12:37:40;8.90;99.90
11532;DHT22;5822;51.000;5.874;2023-01-31T12:40:32;9.00;99.90
11532;DHT22;5822;51.000;5.874;2023-01-31T12:43:02;8.90;99.90
11532;DHT22;5822;51.000;5.874;2023-01-31T12:45:41;9.00;99.90
11532;DHT22;5822;51.000;5.874;2023-01-31T13:01:13;8.90;99.90
11532;DHT22;5822;51.000;5.874;2023-01-31T13:03:58;8.90;99.90
11532;DHT22;5822;51.000;5.874;2023-01-31T13:06:50;8.90;99.90
11532;DHT22;5822;51.000;5.874;2023-01-31T13:09:24;8.90;99.90
11532;DHT22;5822;51.000;5.874;2023-01-31T13:12:11;8.90;99.90
11532;DHT22;5822;51.000;5.874;2023-01-31T13:14:43;8.90;99.90
11532;DHT22;5822;51.000;5.874;2023-01-31T13:17:16;8.90;99.90
11532;DHT22;5822;51.000;5.874;2023-01-31T13:19:55;8.90;99.90
11532;DHT22;5822;51.000;5.874;2023-01-31T13:22:37;8.90;99.90
11532;DHT22;5822;51.000;5.874;2023-01-31T13:27:48;9.00;99.90
11532;DHT22;5822;51.000;5.874;2023-01-31T13:30:23;9.00;99.90
11532;DHT22;5822;51.000;5.874;2023-01-31T13:32:54;8.90;99.90
11532;DHT22;5822;51.000;5.874;2023-01-31T13:35:36;8.90;99.90
11532;DHT22;5822;51.000;5.874;2023-01-31T13:38:07;8.80;99.90
11532;DHT22;5822;51.000;5.874;2023-01-31T13:40:48;8.80;99.90
11532;DHT22;5822;51.000;5.874;2023-01-31T13:43:16;8.80;99.90
11532;DHT22;5822;51.000;5.874;2023-01-31T13:45:46;8.80;99.90
11532;DHT22;5822;51.000;5.874;2023-01-31T13:48:36;8.80;99.90
11532;DHT22;5822;51.000;5.874;2023-01-31T13:53:56;8.70;99.90
11532;DHT22;5822;51.000;5.874;2023-01-31T13:56:32;8.70;99.90
11532;DHT22;5822;51.000;5.874;2023-01-31T13:58:59;8.60;99.90
11532;DHT22;5822;51.000;5.874;2023-01-31T14:01:27;8.70;99.90
11532;DHT22;5822;51.000;5.874;2023-01-31T14:09:28;8.70;99.90
11532;DHT22;5822;51.000;5.874;2023-01-31T14:11:56;8.70;99.90
11532;DHT22;5822;51.000;5.874;2023-01-31T14:24:58;8.60;99.90
11532;DHT22;5822;51.000;5.874;2023-01-31T14:32:46;8.60;99.90
11532;DHT22;5822;51.000;5.874;2023-01-31T14:38:13;8.70;99.90
11532;DHT22;5822;51.000;5.874;2023-01-31T14:49:23;8.70;99.90
11532;DHT22;5822;51.000;5.874;2023-01-31T14:57:50;8.70;99.90
11532;DHT22;5822;51.000;5.874;2023-01-31T15:00:23;8.70;99.90
11532;DHT22;5822;51.000;5.874;2023-01-31T15:02:58;8.60;99.90
11532;DHT22;5822;51.000;5.874;2023-01-31T15:08:01;8.70;99.90
11532;DHT22;5822;51.000;5.874;2023-01-31T15:10:53;8.70;99.90
11532;DHT22;5822;51.000;5.874;2023-01-31T15:13:35;8.70;99.90
11532;DHT22;5822;51.000;5.874;2023-01-31T15:16:03;8.60;99.90
11532;DHT22;5822;51.000;5.874;2023-01-31T15:18:30;8.50;99.90
11532;DHT22;5822;51.000;5.874;2023-01-31T15:20:59;8.60;99.90
11532;DHT22;5822;51.000;5.874;2023-01-31T15:23:27;8.70;99.90
11532;DHT22;5822;51.000;5.874;2023-01-31T15:25:55;8.60;99.90
11532;DHT22;5822;51.000;5.874;2023-01-31T15:28:26;8.70;99.90
11532;DHT22;5822;51.000;5.874;2023-01-31T15:30:55;8.60;99.90
11532;DHT22;5822;51.000;5.874;2023-01-31T15:33:30;8.70;99.90
11532;DHT22;5822;51.000;5.874;2023-01-31T15:36:12;8.70;99.90
11532;DHT22;5822;51.000;5.874;2023-01-31T15:38:46;8.80;99.90
11532;DHT22;5822;51.000;5.874;2023-01-31T15:43:47;8.80;99.90
11532;DHT22;5822;51.000;5.874;2023-01-31T15:46:29;8.80;99.90
11532;DHT22;5822;51.000;5.874;2023-01-31T15:48:55;8.80;99.90
11532;DHT22;5822;51.000;5.874;2023-01-31T15:51:21;8.80;99.90
11532;DHT22;5822;51.000;5.874;2023-01-31T15:53:47;8.80;99.90
11532;DHT22;5822;51.000;5.874;2023-01-31T15:56:20;8.70;99.90
11532;DHT22;5822;51.000;5.874;2023-01-31T15:58:50;8.80;99.90
11532;DHT22;5822;51.000;5.874;2023-01-31T16:01:19;8.90;99.90
11532;DHT22;5822;51.000;5.874;2023-01-31T16:03:53;8.90;99.90
11532;DHT22;5822;51.000;5.874;2023-01-31T16:06:34;8.90;99.90
11532;DHT22;5822;51.000;5.874;2023-01-31T16:09:02;8.90;99.90
11532;DHT22;5822;51.000;5.874;2023-01-31T16:11:30;8.90;99.90
11532;DHT22;5822;51.000;5.874;2023-01-31T16:13:57;9.00;99.90
11532;DHT22;5822;51.000;5.874;2023-01-31T16:16:25;9.00;99.90
11532;DHT22;5822;51.000;5.874;2023-01-31T16:18:54;9.00;99.90
11532;DHT22;5822;51.000;5.874;2023-01-31T16:21:42;9.00;99.90
11532;DHT22;5822;51.000;5.874;2023-01-31T16:24:14;9.00;99.90
11532;DHT22;5822;51.000;5.874;2023-01-31T16:29:43;9.00;99.90
11532;DHT22;5822;51.000;5.874;2023-01-31T16:35:02;9.00;99.90
11532;DHT22;5822;51.000;5.874;2023-01-31T16:40:24;9.00;99.90
11532;DHT22;5822;51.000;5.874;2023-01-31T16:45:33;9.00;99.90
11532;DHT22;5822;51.000;5.874;2023-01-31T16:48:20;9.10;99.90
11532;DHT22;5822;51.000;5.874;2023-01-31T16:50:47;9.10;99.90
11532;DHT22;5822;51.000;5.874;2023-01-31T16:53:25;9.00;99.90
11532;DHT22;5822;51.000;5.874;2023-01-31T16:58:57;9.00;99.90
11532;DHT22;5822;51.000;5.874;2023-01-31T17:01:33;9.00;99.90
11532;DHT22;5822;51.000;5.874;2023-01-31T17:06:25;9.00;99.90
11532;DHT22;5822;51.000;5.874;2023-01-31T17:08:50;9.10;99.90
11532;DHT22;5822;51.000;5.874;2023-01-31T17:11:16;9.10;99.90
11532;DHT22;5822;51.000;5.874;2023-01-31T17:13:43;9.20;99.90
11532;DHT22;5822;51.000;5.874;2023-01-31T17:16:17;9.10;99.90
11532;DHT22;5822;51.000;5.874;2023-01-31T17:18:52;9.00;99.90
11532;DHT22;5822;51.000;5.874;2023-01-31T17:21:20;9.10;99.90
11532;DHT22;5822;51.000;5.874;2023-01-31T17:23:46;9.20;99.90
11532;DHT22;5822;51.000;5.874;2023-01-31T17:26:20;9.10;99.90
11532;DHT22;5822;51.000;5.874;2023-01-31T17:28:47;9.10;99.90
11532;DHT22;5822;51.000;5.874;2023-01-31T17:31:20;9.20;99.90
11532;DHT22;5822;51.000;5.874;2023-01-31T17:33:47;9.20;99.90
11532;DHT22;5822;51.000;5.874;2023-01-31T17:36:13;9.20;99.90
11532;DHT22;5822;51.000;5.874;2023-01-31T17:38:39;9.10;99.90
11532;DHT22;5822;51.000;5.874;2023-01-31T17:41:04;9.20;99.90
11532;DHT22;5822;51.000;5.874;2023-01-31T17:43:30;9.20;99.90
11532;DHT22;5822;51.000;5.874;2023-01-31T17:45:57;9.20;99.90
11532;DHT22;5822;51.000;5.874;2023-01-31T17:48:23;9.20;99.90
11532;DHT22;5822;51.000;5.874;2023-01-31T17:50:48;9.20;99.90
11532;DHT22;5822;51.000;5.874;2023-01-31T17:53:14;9.20;99.90
11532;DHT22;5822;51.000;5.874;2023-01-31T17:55:41;9.20;99.90
11532;DHT22;5822;51.000;5.874;2023-01-31T17:58:13;9.20;99.90
11532;DHT22;5822;51.000;5.874;2023-01-31T18:00:39;9.10;99.90
11532;DHT22;5822;51.000;5.874;2023-01-31T18:03:05;9.20;99.90
11532;DHT22;5822;51.000;5.874;2023-01-31T18:05:31;9.20;99.90
11532;DHT22;5822;51.000;5.874;2023-01-31T18:07:58;9.30;99.90
11532;DHT22;5822;51.000;5.874;2023-01-31T18:10:24;9.20;99.90
11532;DHT22;5822;51.000;5.874;2023-01-31T18:12:50;9.10;99.90
11532;DHT22;5822;51.000;5.874;2023-01-31T18:15:15;9.10;99.90
11532;DHT22;5822;51.000;5.874;2023-01-31T18:17:41;9.00;99.90
11532;DHT22;5822;51.000;5.874;2023-01-31T18:20:07;9.20;99.90
11532;DHT22;5822;51.000;5.874;2023-01-31T18:22:33;9.20;99.90
11532;DHT22;5822;51.000;5.874;2023-01-31T18:25:04;9.20;99.90
11532;DHT22;5822;51.000;5.874;2023-01-31T18:27:30;9.20;99.90
11532;DHT22;5822;51.000;5.874;2023-01-31T18:29:55;9.20;99.90
11532;DHT22;5822;51.000;5.874;2023-01-31T18:32:21;9.20;99.90
11532;DHT22;5822;51.000;5.874;2023-01-31T18:34:46;9.20;99.90
11532;DHT22;5822;51.000;5.874;2023-01-31T18:37:12;9.20;99.90
11532;DHT22;5822;51.000;5.874;2023-01-31T18:39:46;9.10;99.90
11532;DHT22;5822;51.000;5.874;2023-01-31T18:42:12;9.10;99.90
11532;DHT22;5822;51.000;5.874;2023-01-31T18:44:37;9.10;99.90
11532;DHT22;5822;51.000;5.874;2023-01-31T18:47:03;9.20;99.90
11532;DHT22;5822;51.000;5.874;2023-01-31T18:49:29;9.10;99.90
11532;DHT22;5822;51.000;5.874;2023-01-31T18:51:54;9.00;99.90
11532;DHT22;5822;51.000;5.874;2023-01-31T18:54:20;9.10;99.90
11532;DHT22;5822;51.000;5.874;2023-01-31T18:56:46;9.10;99.90
11532;DHT22;5822;51.000;5.874;2023-01-31T18:59:11;9.00;99.90